createdAt,value
2019-02-26T00:00:03.374Z,21.57
2019-02-26T00:02:32.483Z,21.40
2019-02-26T00:05:01.288Z,22.10
2019-02-26T00:07:29.891Z,21.23
2019-02-26T00:09:57.565Z,21.00
2019-02-26T00:12:26.464Z,22.27
2019-02-26T00:14:55.034Z,21.67
2019-02-26T00:17:23.338Z,21.50
2019-02-26T00:19:50.232Z,21.90
2019-02-26T00:22:18.320Z,20.90
2019-02-26T00:24:46.629Z,21.07
2019-02-26T00:27:13.718Z,22.40
2019-02-26T00:29:40.700Z,21.60
2019-02-26T00:32:09.289Z,22.60
2019-02-26T00:34:37.301Z,22.37
2019-02-26T00:37:06.294Z,22.40
2019-02-26T00:39:33.887Z,24.53
2019-02-26T00:42:02.521Z,22.30
2019-02-26T00:44:30.626Z,24.00
2019-02-26T00:46:59.743Z,24.00
2019-02-26T00:49:28.470Z,23.97
2019-02-26T00:51:56.089Z,23.17
2019-02-26T00:54:24.505Z,22.77
2019-02-26T00:56:51.832Z,22.50
2019-02-26T00:59:18.804Z,23.70
2019-02-26T01:01:48.244Z,23.17
2019-02-26T01:04:15.136Z,21.30
2019-02-26T01:06:42.064Z,22.20
2019-02-26T01:09:12.133Z,21.43
2019-02-26T01:11:39.024Z,23.20
2019-02-26T01:14:05.881Z,22.47
2019-02-26T01:16:33.040Z,22.70
2019-02-26T01:19:00.000Z,23.57
2019-02-26T01:21:29.102Z,22.40
2019-02-26T01:23:56.707Z,22.40
2019-02-26T01:26:27.337Z,23.33
2019-02-26T01:28:54.181Z,22.10
2019-02-26T01:31:22.857Z,22.10
2019-02-26T01:33:52.884Z,23.73
2019-02-26T01:36:21.464Z,23.30
2019-02-26T01:38:49.169Z,23.27
2019-02-26T01:41:17.962Z,22.40
2019-02-26T01:43:46.024Z,22.83
2019-02-26T01:46:14.642Z,23.07
2019-02-26T01:48:41.592Z,23.47
2019-02-26T01:51:08.399Z,24.10
2019-02-26T01:53:35.488Z,23.00
2019-02-26T01:56:04.576Z,23.17
2019-02-26T01:58:33.487Z,22.73
2019-02-26T02:00:59.995Z,24.73
2019-02-26T02:03:27.986Z,23.47
2019-02-26T02:05:55.713Z,24.53
2019-02-26T02:08:24.863Z,23.20
2019-02-26T02:10:53.669Z,23.60
2019-02-26T02:13:20.091Z,23.77
2019-02-26T02:15:46.900Z,23.90
2019-02-26T02:18:13.746Z,23.97
2019-02-26T02:20:40.737Z,23.23
2019-02-26T02:23:07.773Z,23.67
2019-02-26T02:25:36.139Z,25.03
2019-02-26T02:28:04.527Z,24.10
2019-02-26T02:30:35.609Z,23.63
2019-02-26T02:33:02.146Z,24.90
2019-02-26T02:35:29.381Z,24.10
2019-02-26T02:37:59.355Z,24.30
2019-02-26T02:40:25.200Z,24.53
2019-02-26T02:42:52.084Z,24.80
2019-02-26T02:45:21.027Z,23.43
2019-02-26T02:47:48.132Z,25.47
2019-02-26T02:50:17.574Z,25.27
2019-02-26T02:52:43.869Z,25.17
2019-02-26T02:55:13.851Z,25.40
2019-02-26T02:57:39.748Z,27.20
2019-02-26T03:00:08.511Z,28.23
2019-02-26T03:02:40.564Z,26.67
2019-02-26T03:05:04.562Z,27.63
2019-02-26T03:07:31.481Z,26.97
2019-02-26T03:10:03.969Z,28.47
2019-02-26T03:12:29.648Z,28.03
2019-02-26T03:14:58.882Z,26.43
2019-02-26T03:17:25.259Z,26.63
2019-02-26T03:19:52.255Z,28.13
2019-02-26T03:22:21.576Z,27.07
2019-02-26T03:24:50.691Z,28.77
2019-02-26T03:27:16.868Z,29.27
2019-02-26T03:29:45.019Z,27.70
2019-02-26T03:32:12.882Z,28.77
2019-02-26T03:34:39.685Z,28.00
2019-02-26T03:37:08.220Z,28.40
2019-02-26T03:39:35.346Z,28.53
2019-02-26T03:42:02.574Z,28.63
2019-02-26T03:44:30.357Z,29.90
2019-02-26T03:46:57.376Z,28.93
2019-02-26T03:49:27.092Z,29.33
2019-02-26T03:51:52.972Z,28.23
2019-02-26T03:54:19.908Z,29.00
2019-02-26T03:56:46.766Z,28.80
2019-02-26T03:59:13.673Z,29.07
2019-02-26T04:01:40.471Z,27.23
2019-02-26T04:04:07.731Z,28.40
2019-02-26T04:06:36.604Z,28.23
2019-02-26T04:09:04.621Z,29.07
2019-02-26T04:11:31.520Z,28.37
2019-02-26T04:13:58.454Z,29.20
2019-02-26T04:16:25.416Z,28.83
2019-02-26T04:18:52.369Z,30.03
2019-02-26T04:21:21.142Z,28.80
2019-02-26T04:23:48.941Z,28.47
2019-02-26T04:26:21.044Z,27.50
2019-02-26T04:28:50.005Z,29.20
2019-02-26T04:31:24.406Z,27.97
2019-02-26T04:33:59.579Z,28.10
2019-02-26T04:36:47.107Z,28.50
2019-02-26T04:39:34.843Z,27.07
2019-02-26T04:42:16.892Z,27.23
2019-02-26T04:45:02.114Z,26.40
2019-02-26T04:47:33.144Z,27.83
2019-02-26T04:50:00.545Z,27.80
2019-02-26T04:52:29.363Z,27.40
2019-02-26T04:54:55.930Z,27.97
2019-02-26T04:57:22.923Z,28.97
2019-02-26T04:59:49.801Z,27.93
2019-02-26T05:02:16.769Z,28.90
2019-02-26T05:04:43.735Z,29.07
2019-02-26T05:07:13.454Z,28.60
2019-02-26T05:09:39.396Z,26.70
2019-02-26T05:12:06.316Z,27.30
2019-02-26T05:14:33.195Z,27.27
2019-02-26T05:17:00.066Z,27.57
2019-02-26T05:19:26.890Z,28.23
2019-02-26T05:21:55.964Z,29.40
2019-02-26T05:24:25.856Z,28.37
2019-02-26T05:26:52.610Z,26.97
2019-02-26T05:29:19.711Z,28.20
2019-02-26T05:31:46.775Z,27.80
2019-02-26T05:34:15.182Z,28.50
2019-02-26T05:36:45.869Z,28.93
2019-02-26T05:39:13.985Z,27.87
2019-02-26T05:41:41.663Z,28.47
2019-02-26T05:44:10.758Z,27.97
2019-02-26T05:46:37.774Z,28.00
2019-02-26T05:49:06.851Z,27.57
2019-02-26T05:51:35.475Z,28.63
2019-02-26T05:54:05.232Z,30.83
2019-02-26T05:56:31.075Z,29.50
2019-02-26T05:59:02.088Z,28.93
2019-02-26T06:01:27.821Z,30.43
2019-02-26T06:03:54.878Z,29.60
2019-02-26T06:06:21.963Z,29.30
2019-02-26T06:08:49.200Z,29.67
2019-02-26T06:11:17.038Z,29.33
2019-02-26T06:13:44.116Z,30.43
2019-02-26T06:16:10.994Z,28.70
2019-02-26T06:18:41.214Z,29.83
2019-02-26T06:21:06.705Z,29.90
2019-02-26T06:23:34.539Z,30.33
2019-02-26T06:26:09.738Z,29.13
2019-02-26T06:28:38.030Z,29.83
2019-02-26T06:31:03.264Z,30.30
2019-02-26T06:33:34.086Z,30.40
2019-02-26T06:35:59.881Z,29.63
2019-02-26T06:38:32.167Z,30.67
2019-02-26T06:40:57.800Z,31.27
2019-02-26T06:43:24.661Z,30.77
2019-02-26T06:45:51.511Z,30.90
2019-02-26T06:48:20.810Z,32.23
2019-02-26T06:50:46.992Z,31.13
2019-02-26T06:53:16.129Z,31.10
2019-02-26T06:55:42.620Z,31.50
2019-02-26T06:58:22.704Z,32.80
2019-02-26T07:00:53.337Z,32.60
2019-02-26T07:03:18.488Z,32.07
2019-02-26T07:05:46.551Z,30.20
2019-02-26T07:08:13.685Z,32.70
2019-02-26T07:10:40.636Z,31.80
2019-02-26T07:13:09.446Z,32.87
2019-02-26T07:15:36.272Z,32.50
2019-02-26T07:18:06.752Z,34.00
2019-02-26T07:20:34.277Z,32.80
2019-02-26T07:23:00.581Z,33.73
2019-02-26T07:25:27.431Z,33.80
2019-02-26T07:27:56.342Z,32.77
2019-02-26T07:30:23.244Z,34.23
2019-02-26T07:32:50.066Z,34.03
2019-02-26T07:35:17.369Z,33.13
2019-02-26T07:37:44.328Z,34.73
2019-02-26T07:40:15.231Z,34.40
2019-02-26T07:42:41.522Z,34.47
2019-02-26T07:45:15.062Z,33.53
2019-02-26T07:47:37.953Z,35.20
2019-02-26T07:50:06.804Z,32.70
2019-02-26T07:52:33.544Z,35.03
2019-02-26T07:55:00.334Z,35.13
2019-02-26T07:57:27.635Z,36.60
2019-02-26T07:59:54.715Z,35.70
2019-02-26T08:02:21.549Z,38.07
2019-02-26T08:04:48.689Z,37.30
2019-02-26T08:07:15.554Z,36.33
2019-02-26T08:09:42.543Z,39.70
2019-02-26T08:12:11.371Z,35.90
2019-02-26T08:14:40.207Z,38.30
2019-02-26T08:17:06.841Z,39.00
2019-02-26T08:19:34.959Z,38.57
2019-02-26T08:22:02.391Z,39.63
2019-02-26T08:24:29.266Z,39.10
2019-02-26T08:26:56.108Z,41.20
2019-02-26T08:29:24.510Z,40.07
2019-02-26T08:31:52.133Z,40.17
2019-02-26T08:34:20.428Z,41.50
2019-02-26T08:36:47.265Z,40.23
2019-02-26T08:39:15.701Z,39.90
2019-02-26T08:41:59.845Z,40.00
2019-02-26T08:44:28.119Z,40.23
2019-02-26T08:46:55.121Z,41.23
2019-02-26T08:49:22.546Z,42.23
2019-02-26T08:51:49.513Z,40.17
2019-02-26T08:54:20.934Z,39.80
2019-02-26T08:56:45.109Z,40.00
2019-02-26T08:59:12.106Z,44.20
2019-02-26T09:01:38.962Z,42.27
2019-02-26T09:04:05.836Z,42.00
2019-02-26T09:06:32.717Z,40.77
2019-02-26T09:09:00.168Z,42.50
2019-02-26T09:11:28.764Z,43.00
2019-02-26T09:13:59.383Z,42.30
2019-02-26T09:16:27.782Z,41.90
2019-02-26T09:18:54.447Z,42.73
2019-02-26T09:21:22.840Z,42.20
2019-02-26T09:23:54.900Z,42.73
2019-02-26T09:26:19.983Z,40.27
2019-02-26T09:28:48.188Z,38.00
2019-02-26T09:31:15.624Z,40.77
2019-02-26T09:33:43.460Z,45.07
2019-02-26T09:36:14.908Z,48.37
2019-02-26T09:38:41.778Z,41.13
2019-02-26T09:41:10.024Z,45.47
2019-02-26T09:43:38.792Z,39.63
2019-02-26T09:46:09.018Z,39.87
2019-02-26T09:48:35.923Z,42.97
2019-02-26T09:51:04.835Z,39.03
2019-02-26T09:53:32.961Z,40.23
2019-02-26T09:55:59.821Z,40.00
2019-02-26T09:58:27.021Z,40.10
2019-02-26T10:00:54.106Z,39.90
2019-02-26T10:03:21.131Z,40.97
2019-02-26T10:05:50.084Z,40.67
2019-02-26T10:08:17.337Z,42.97
2019-02-26T10:10:45.448Z,42.37
2019-02-26T10:13:15.489Z,41.87
2019-02-26T10:15:44.658Z,41.93
2019-02-26T10:18:11.500Z,42.80
2019-02-26T10:20:38.317Z,40.90
2019-02-26T10:23:06.305Z,41.53
2019-02-26T10:25:34.999Z,48.07
2019-02-26T10:28:05.702Z,44.70
2019-02-26T10:30:33.478Z,49.00
2019-02-26T10:33:02.758Z,48.17
2019-02-26T10:35:33.096Z,45.10
2019-02-26T10:38:00.440Z,45.83
2019-02-26T10:40:35.096Z,45.30
2019-02-26T10:42:56.625Z,46.67
2019-02-26T10:45:24.073Z,48.20
2019-02-26T10:47:51.737Z,45.87
2019-02-26T10:50:22.376Z,45.53
2019-02-26T10:52:48.713Z,43.90
2019-02-26T10:55:17.715Z,46.83
2019-02-26T10:57:44.605Z,47.97
2019-02-26T11:00:15.709Z,48.70
2019-02-26T11:02:43.401Z,45.37
2019-02-26T11:05:14.100Z,46.70
2019-02-26T11:07:40.171Z,45.30
2019-02-26T11:10:07.423Z,49.20
2019-02-26T11:12:34.560Z,44.67
2019-02-26T11:15:04.355Z,49.47
2019-02-26T11:17:31.650Z,50.83
2019-02-26T11:20:01.048Z,46.03
2019-02-26T11:22:28.054Z,48.30
2019-02-26T11:24:56.198Z,45.60
2019-02-26T11:27:24.171Z,47.13
2019-02-26T11:29:52.086Z,45.73
2019-02-26T11:32:19.760Z,45.23
2019-02-26T11:34:46.591Z,46.90
2019-02-26T11:37:13.381Z,46.50
2019-02-26T11:39:40.260Z,42.83
2019-02-26T11:42:07.073Z,43.00
2019-02-26T11:44:33.964Z,42.30
2019-02-26T11:47:00.808Z,45.97
2019-02-26T11:49:27.857Z,47.60
2019-02-26T11:51:55.020Z,43.73
2019-02-26T11:54:21.989Z,44.50
2019-02-26T11:56:49.887Z,46.20
2019-02-26T11:59:19.406Z,49.37
2019-02-26T12:01:46.678Z,46.67
2019-02-26T12:04:14.301Z,45.20
2019-02-26T12:06:42.336Z,53.87
2019-02-26T12:09:11.407Z,42.67
2019-02-26T12:11:38.497Z,45.73
2019-02-26T12:14:05.579Z,44.30
2019-02-26T12:16:32.634Z,42.00
2019-02-26T12:19:01.420Z,41.97
2019-02-26T12:21:29.957Z,43.93
2019-02-26T12:23:58.102Z,42.60
2019-02-26T12:26:27.914Z,43.10
2019-02-26T12:28:57.168Z,47.97
2019-02-26T12:31:25.318Z,44.50
2019-02-26T12:33:52.341Z,44.57
2019-02-26T12:36:21.222Z,44.40
2019-02-26T12:38:50.146Z,42.70
2019-02-26T12:41:19.084Z,42.33
2019-02-26T12:43:46.425Z,41.83
2019-02-26T12:46:19.204Z,43.20
2019-02-26T12:48:47.712Z,41.30
2019-02-26T12:51:14.635Z,46.70
2019-02-26T12:53:47.590Z,45.20
2019-02-26T12:56:13.524Z,43.57
2019-02-26T12:58:41.114Z,44.10
2019-02-26T13:01:09.297Z,41.53
2019-02-26T13:03:39.820Z,41.30
2019-02-26T13:08:36.089Z,39.97
2019-02-26T13:11:02.817Z,40.30
2019-02-26T13:13:29.693Z,41.67
2019-02-26T13:15:56.519Z,40.57
2019-02-26T13:18:24.387Z,40.47
2019-02-26T13:20:56.740Z,41.70
2019-02-26T13:23:21.808Z,40.70
2019-02-26T13:25:48.973Z,42.50
2019-02-26T13:28:16.358Z,39.03
2019-02-26T13:30:43.317Z,41.93
2019-02-26T13:33:11.396Z,47.90
2019-02-26T13:35:41.796Z,38.97
2019-02-26T13:38:07.910Z,40.20
2019-02-26T13:40:38.456Z,42.10
2019-02-26T13:45:32.294Z,51.87
2019-02-26T13:48:01.350Z,39.60
2019-02-26T13:50:28.630Z,41.30
2019-02-26T13:52:55.520Z,43.10
2019-02-26T13:55:22.389Z,62.07
2019-02-26T13:57:49.672Z,45.17
2019-02-26T14:00:23.561Z,50.43
2019-02-26T14:02:45.384Z,48.77
2019-02-26T14:05:12.685Z,43.60
2019-02-26T14:07:39.579Z,42.57
2019-02-26T14:10:07.747Z,47.10
2019-02-26T14:12:35.009Z,43.27
2019-02-26T14:15:03.744Z,42.17
2019-02-26T14:17:30.592Z,41.27
2019-02-26T14:19:57.805Z,42.00
2019-02-26T14:22:25.488Z,40.70
2019-02-26T14:24:52.522Z,40.40
2019-02-26T14:27:19.768Z,42.97
2019-02-26T14:29:47.413Z,42.70
2019-02-26T14:32:15.396Z,43.37
2019-02-26T14:34:42.498Z,45.33
2019-02-26T14:37:09.426Z,44.23
2019-02-26T14:39:36.318Z,44.93
2019-02-26T14:42:03.443Z,40.97
2019-02-26T14:44:30.571Z,44.23
2019-02-26T14:46:57.677Z,45.83
2019-02-26T14:49:25.106Z,44.20
2019-02-26T14:51:52.040Z,42.13
2019-02-26T14:54:18.907Z,44.43
2019-02-26T14:57:01.484Z,41.60
2019-02-26T14:59:28.339Z,44.93
2019-02-26T15:01:56.547Z,42.80
2019-02-26T15:04:23.561Z,45.40
2019-02-26T15:06:50.485Z,45.50
2019-02-26T15:09:17.821Z,44.10
2019-02-26T15:11:45.020Z,49.03
2019-02-26T15:14:12.074Z,46.07
2019-02-26T15:16:38.941Z,46.50
2019-02-26T15:19:05.810Z,48.30
2019-02-26T15:21:32.712Z,49.73
2019-02-26T15:23:59.903Z,44.77
2019-02-26T15:26:26.859Z,43.80
2019-02-26T15:28:53.852Z,48.10
2019-02-26T15:31:20.680Z,44.93
2019-02-26T15:33:47.853Z,44.53
2019-02-26T15:36:14.811Z,46.67
2019-02-26T15:38:41.701Z,49.80
2019-02-26T15:41:08.504Z,45.20
2019-02-26T15:43:35.472Z,46.20
2019-02-26T15:46:02.367Z,46.40
2019-02-26T15:48:29.268Z,46.10
2019-02-26T15:50:58.047Z,45.50
2019-02-26T15:53:25.262Z,47.70
2019-02-26T15:55:52.191Z,47.50
2019-02-26T15:58:19.081Z,45.10
2019-02-26T16:00:45.975Z,47.60
2019-02-26T16:03:12.876Z,47.63
2019-02-26T16:05:39.800Z,49.63
2019-02-26T16:10:35.659Z,47.07
2019-02-26T16:13:05.531Z,47.30
2019-02-26T16:15:33.003Z,51.17
2019-02-26T16:17:59.845Z,48.70
2019-02-26T16:20:27.092Z,50.93
2019-02-26T16:22:54.005Z,50.33
2019-02-26T16:25:20.917Z,48.23
2019-02-26T16:27:47.828Z,52.70
2019-02-26T16:30:18.190Z,52.80
2019-02-26T16:32:45.092Z,51.77
2019-02-26T16:35:11.997Z,54.00
2019-02-26T16:37:41.596Z,50.87
2019-02-26T16:40:08.152Z,54.23
2019-02-26T16:42:36.036Z,50.23
2019-02-26T16:45:03.340Z,56.47
2019-02-26T16:47:30.163Z,53.37
2019-02-26T16:49:58.643Z,52.50
2019-02-26T16:52:27.750Z,54.17
2019-02-26T16:54:54.886Z,52.40
2019-02-26T16:57:21.913Z,52.80
2019-02-26T16:59:48.730Z,51.60
2019-02-26T17:02:16.231Z,54.40
2019-02-26T17:04:43.077Z,53.27
2019-02-26T17:07:09.855Z,50.60
2019-02-26T17:09:37.304Z,52.40
2019-02-26T17:12:04.292Z,52.30
2019-02-26T17:14:31.194Z,53.33
2019-02-26T17:16:58.416Z,54.30
2019-02-26T17:19:26.194Z,52.17
2019-02-26T17:21:54.160Z,53.10
2019-02-26T17:24:21.597Z,51.10
2019-02-26T17:26:48.528Z,52.67
2019-02-26T17:29:16.911Z,56.40
2019-02-26T17:31:44.246Z,54.97
2019-02-26T17:34:11.459Z,53.90
2019-02-26T17:36:38.361Z,52.73
2019-02-26T17:39:05.418Z,56.87
2019-02-26T17:41:32.281Z,54.27
2019-02-26T17:43:59.670Z,57.10
2019-02-26T17:46:26.701Z,54.67
2019-02-26T17:48:53.773Z,55.07
2019-02-26T17:51:20.655Z,56.70
2019-02-26T17:53:47.491Z,60.70
2019-02-26T17:56:14.819Z,58.60
2019-02-26T17:58:43.854Z,63.13
2019-02-26T18:01:11.111Z,57.30
2019-02-26T18:03:38.154Z,56.63
2019-02-26T18:06:05.023Z,55.17
2019-02-26T18:08:32.118Z,59.30
2019-02-26T18:10:58.900Z,57.90
2019-02-26T18:13:25.706Z,60.63
2019-02-26T18:15:56.083Z,68.00
2019-02-26T18:18:41.205Z,59.70
2019-02-26T18:21:08.197Z,66.40
2019-02-26T18:23:37.564Z,58.43
2019-02-26T18:26:03.788Z,60.97
2019-02-26T18:28:30.641Z,65.53
2019-02-26T18:30:57.500Z,62.03
2019-02-26T18:33:24.361Z,63.50
2019-02-26T18:35:51.202Z,65.27
2019-02-26T18:38:18.120Z,63.10
2019-02-26T18:40:44.971Z,64.87
2019-02-26T18:43:14.363Z,74.97
2019-02-26T18:45:42.301Z,65.87
2019-02-26T18:48:09.996Z,70.73
2019-02-26T18:50:37.230Z,69.60
2019-02-26T18:53:05.813Z,74.17
2019-02-26T18:55:32.779Z,78.10
2019-02-26T18:58:00.247Z,68.07
2019-02-26T19:00:27.788Z,69.20
2019-02-26T19:02:54.667Z,57.00
2019-02-26T19:05:21.596Z,53.37
2019-02-26T19:07:48.840Z,54.60
2019-02-26T19:10:19.403Z,55.80
2019-02-26T19:12:44.829Z,55.00
2019-02-26T19:15:12.596Z,52.00
2019-02-26T19:17:41.979Z,51.57
2019-02-26T19:20:09.495Z,48.70
2019-02-26T19:22:36.365Z,50.63
2019-02-26T19:25:03.535Z,51.47
2019-02-26T19:27:30.455Z,53.63
2019-02-26T19:29:57.309Z,50.47
2019-02-26T19:32:25.895Z,50.30
2019-02-26T19:34:52.946Z,54.00
2019-02-26T19:37:22.349Z,51.90
2019-02-26T19:39:48.558Z,52.77
2019-02-26T19:42:17.828Z,52.17
2019-02-26T19:44:44.394Z,51.20
2019-02-26T19:47:11.390Z,53.87
2019-02-26T19:49:39.729Z,57.23
2019-02-26T19:52:07.185Z,53.53
2019-02-26T19:54:34.089Z,56.57
2019-02-26T19:57:01.017Z,50.80
2019-02-26T19:59:28.956Z,52.17
2019-02-26T20:01:58.671Z,55.80
2019-02-26T20:04:24.856Z,80.40
2019-02-26T20:06:51.809Z,65.13
2019-02-26T20:09:20.198Z,58.73
2019-02-26T20:11:48.292Z,58.93
2019-02-26T20:14:21.197Z,76.23
2019-02-26T20:16:44.336Z,63.40
2019-02-26T20:19:13.378Z,61.60
2019-02-26T20:21:40.381Z,62.20
2019-02-26T20:24:07.747Z,73.67
2019-02-26T20:26:34.629Z,59.53
2019-02-26T20:29:01.642Z,63.70
2019-02-26T20:31:28.986Z,61.13
2019-02-26T20:33:56.387Z,62.57
2019-02-26T20:36:23.386Z,63.03
2019-02-26T20:38:50.183Z,60.90
2019-02-26T20:41:17.332Z,63.53
2019-02-26T20:43:44.214Z,69.63
2019-02-26T20:46:11.062Z,66.63
2019-02-26T20:48:38.567Z,67.33
2019-02-26T20:51:05.548Z,66.93
2019-02-26T20:53:32.375Z,60.00
2019-02-26T20:55:59.220Z,62.87
2019-02-26T20:58:27.076Z,59.80
2019-02-26T21:00:53.936Z,61.33
2019-02-26T21:03:20.905Z,60.30
2019-02-26T21:05:47.724Z,62.77
2019-02-26T21:08:16.153Z,66.37
2019-02-26T21:10:42.952Z,64.60
2019-02-26T21:13:09.971Z,63.33
2019-02-26T21:15:36.859Z,64.20
2019-02-26T21:18:04.767Z,65.60
2019-02-26T21:20:31.825Z,67.03
2019-02-26T21:22:58.696Z,64.50
2019-02-26T21:25:25.968Z,64.50
2019-02-26T21:27:52.776Z,65.17
2019-02-26T21:30:19.639Z,62.83
2019-02-26T21:32:46.868Z,64.70
2019-02-26T21:35:13.716Z,62.77
2019-02-26T21:37:40.588Z,63.77
2019-02-26T21:40:07.898Z,68.53
2019-02-26T21:42:34.701Z,60.20
2019-02-26T21:45:01.925Z,64.40
2019-02-26T21:47:28.776Z,66.33
2019-02-26T21:49:55.901Z,61.73
2019-02-26T21:52:22.774Z,66.60
2019-02-26T21:54:49.618Z,67.60
2019-02-26T21:57:16.547Z,65.77
2019-02-26T21:59:49.825Z,68.00
2019-02-26T22:02:12.229Z,71.50
2019-02-26T22:04:39.112Z,67.17
2019-02-26T22:07:05.976Z,72.70
2019-02-26T22:09:33.399Z,76.93
2019-02-26T22:12:03.070Z,76.97
2019-02-26T22:14:30.334Z,76.27
2019-02-26T22:16:57.559Z,73.30
2019-02-26T22:19:25.185Z,72.40
2019-02-26T22:21:52.881Z,72.63
2019-02-26T22:24:20.102Z,71.77
2019-02-26T22:26:47.077Z,67.60
2019-02-26T22:29:15.292Z,71.97
2019-02-26T22:31:42.908Z,74.43
2019-02-26T22:34:09.777Z,68.20
2019-02-26T22:36:36.703Z,71.70
2019-02-26T22:39:04.808Z,69.73
2019-02-26T22:41:32.764Z,66.30
2019-02-26T22:44:01.124Z,66.77
2019-02-26T22:46:33.650Z,67.83
2019-02-26T22:48:59.587Z,67.50
2019-02-26T22:51:26.776Z,70.93
2019-02-26T22:53:54.078Z,69.33
2019-02-26T22:56:21.940Z,67.00
2019-02-26T22:58:49.713Z,73.17
2019-02-26T23:01:30.070Z,68.47
2019-02-26T23:03:49.574Z,65.97
2019-02-26T23:06:16.419Z,69.90
2019-02-26T23:08:46.483Z,75.80
2019-02-26T23:11:14.311Z,73.70
2019-02-26T23:13:41.191Z,79.40
2019-02-26T23:16:08.460Z,68.30
2019-02-26T23:18:35.396Z,70.50
2019-02-26T23:21:02.609Z,81.67
2019-02-26T23:23:29.492Z,69.90
2019-02-26T23:25:58.790Z,66.50
2019-02-26T23:28:25.853Z,66.40
2019-02-26T23:30:53.118Z,65.80
2019-02-26T23:33:20.217Z,71.97
2019-02-26T23:35:47.353Z,67.07
2019-02-26T23:38:14.290Z,66.97
2019-02-26T23:40:41.094Z,70.70
2019-02-26T23:43:11.831Z,65.67
2019-02-26T23:45:38.356Z,67.30
2019-02-26T23:48:07.839Z,66.40
2019-02-26T23:50:34.324Z,63.73
2019-02-26T23:53:01.763Z,68.00
2019-02-26T23:55:28.769Z,67.60
2019-02-26T23:57:57.762Z,70.90
